createdAt,value
2022-12-11T00:04:27.618Z,13.67
2022-12-11T00:09:32.483Z,13.78
2022-12-11T00:14:36.335Z,14.02
2022-12-11T00:19:40.116Z,14.05
2022-12-11T00:24:44.828Z,14.07
2022-12-11T00:29:48.122Z,14.09
2022-12-11T00:34:51.494Z,14.26
2022-12-11T00:39:56.387Z,14.43
2022-12-11T00:44:59.741Z,14.50
2022-12-11T00:50:03.185Z,14.49
2022-12-11T00:55:09.268Z,14.47
2022-12-11T01:00:14.314Z,14.62
2022-12-11T01:05:18.532Z,14.73
2022-12-11T01:10:26.064Z,14.71
2022-12-11T01:15:31.045Z,14.84
2022-12-11T01:20:34.855Z,14.80
2022-12-11T01:25:40.055Z,14.89
2022-12-11T01:30:44.741Z,14.86
2022-12-11T01:35:48.088Z,14.82
2022-12-11T01:40:53.217Z,14.77
2022-12-11T01:45:57.083Z,14.81
2022-12-11T01:51:02.742Z,14.79
2022-12-11T01:56:09.324Z,14.91
2022-12-11T02:01:15.975Z,14.65
2022-12-11T02:06:38.372Z,14.31
2022-12-11T02:11:52.594Z,14.24
2022-12-11T02:17:01.136Z,14.21
2022-12-11T02:22:10.274Z,13.84
2022-12-11T02:27:27.928Z,13.85
2022-12-11T02:32:39.597Z,13.79
2022-12-11T02:37:46.606Z,13.71
2022-12-11T02:42:51.822Z,13.55
2022-12-11T02:47:59.837Z,13.53
2022-12-11T02:53:06.072Z,13.53
2022-12-11T02:58:16.005Z,13.62
2022-12-11T03:03:20.912Z,13.54
2022-12-11T03:08:24.522Z,13.61
2022-12-11T03:13:28.339Z,13.57
2022-12-11T03:18:40.767Z,13.54
2022-12-11T03:23:51.436Z,13.50
2022-12-11T03:29:00.033Z,13.51
2022-12-11T03:34:12.153Z,13.51
2022-12-11T03:39:22.786Z,13.35
2022-12-11T03:44:27.883Z,13.42
2022-12-11T03:49:36.389Z,13.53
2022-12-11T03:54:41.435Z,13.59
2022-12-11T03:59:44.974Z,13.45
2022-12-11T04:04:49.694Z,13.41
2022-12-11T04:09:53.071Z,13.30
2022-12-11T04:15:03.490Z,13.44
2022-12-11T04:20:29.711Z,13.42
2022-12-11T04:25:33.050Z,13.35
2022-12-11T04:30:36.432Z,13.36
2022-12-11T04:35:41.240Z,13.19
2022-12-11T04:40:44.611Z,13.26
2022-12-11T04:45:47.983Z,13.25
2022-12-11T04:50:52.734Z,13.34
2022-12-11T04:55:56.681Z,13.47
2022-12-11T05:01:00.023Z,13.34
2022-12-11T05:06:05.372Z,13.30
2022-12-11T05:11:11.759Z,13.27
2022-12-11T05:16:17.877Z,13.43
2022-12-11T05:21:22.667Z,13.73
2022-12-11T05:26:26.116Z,13.93
2022-12-11T05:31:29.875Z,13.85
2022-12-11T05:36:35.457Z,13.97
2022-12-11T05:41:38.801Z,13.97
2022-12-11T05:46:42.288Z,14.22
2022-12-11T05:51:47.057Z,14.50
2022-12-11T05:56:51.814Z,14.69
2022-12-11T06:01:55.228Z,14.72
2022-12-11T06:07:00.091Z,14.80
2022-12-11T06:12:03.511Z,15.33
2022-12-11T06:17:06.922Z,15.82
2022-12-11T06:22:11.736Z,16.01
2022-12-11T06:27:15.050Z,15.96
2022-12-11T06:32:18.407Z,15.89
2022-12-11T06:37:23.200Z,15.88
2022-12-11T06:42:26.621Z,15.89
2022-12-11T06:47:30.552Z,15.89
2022-12-11T06:52:35.934Z,15.97
2022-12-11T06:57:39.299Z,16.01
2022-12-11T07:02:42.788Z,16.04
2022-12-11T07:07:48.141Z,16.15
2022-12-11T07:12:53.721Z,16.18
2022-12-11T07:17:57.115Z,16.31
2022-12-11T07:23:01.830Z,16.30
2022-12-11T07:28:05.354Z,16.32
2022-12-11T07:33:09.073Z,16.38
2022-12-11T07:38:13.846Z,16.38
2022-12-11T07:43:17.450Z,16.48
2022-12-11T07:48:20.859Z,16.53
2022-12-11T07:53:25.674Z,16.48
2022-12-11T07:58:29.611Z,16.57
2022-12-11T08:03:33.093Z,16.58
2022-12-11T08:08:38.086Z,16.53
2022-12-11T08:13:42.493Z,16.51
2022-12-11T08:18:47.462Z,16.50
2022-12-11T08:23:53.305Z,16.47
2022-12-11T08:28:57.383Z,16.51
2022-12-11T08:34:00.711Z,16.63
2022-12-11T08:39:05.720Z,16.65
2022-12-11T08:44:16.338Z,16.71
2022-12-11T08:49:21.095Z,16.77
2022-12-11T08:54:25.835Z,16.91
2022-12-11T08:59:29.238Z,16.93
2022-12-11T09:04:32.618Z,16.92
2022-12-11T09:09:37.444Z,17.07
2022-12-11T09:14:40.872Z,17.14
2022-12-11T09:19:44.451Z,17.22
2022-12-11T09:24:49.222Z,17.37
2022-12-11T09:29:52.681Z,17.60
2022-12-11T09:34:56.044Z,17.83
2022-12-11T09:40:05.764Z,17.78
2022-12-11T09:45:15.126Z,17.91
2022-12-11T09:50:24.082Z,17.79
2022-12-11T09:55:38.948Z,18.01
2022-12-11T10:00:48.568Z,18.58
2022-12-11T10:06:04.238Z,18.79
2022-12-11T10:11:38.989Z,19.15
2022-12-11T10:16:46.223Z,19.52
2022-12-11T10:21:52.546Z,19.11
2022-12-11T10:27:01.595Z,18.75
2022-12-11T10:32:08.191Z,19.17
2022-12-11T10:37:11.637Z,18.57
2022-12-11T10:42:20.608Z,18.62
2022-12-11T10:47:24.125Z,18.70
2022-12-11T10:52:31.697Z,19.12
2022-12-11T10:57:38.290Z,18.79
2022-12-11T11:02:46.876Z,18.93
2022-12-11T11:07:51.572Z,18.61
2022-12-11T11:13:30.011Z,18.58
2022-12-11T11:33:02.440Z,19.44
2022-12-11T11:38:18.419Z,18.93
2022-12-11T11:43:34.109Z,19.04
2022-12-11T11:48:45.921Z,18.93
2022-12-11T11:53:52.760Z,19.16
2022-12-11T11:59:04.322Z,19.07
2022-12-11T12:04:09.681Z,18.70
2022-12-11T12:09:25.407Z,18.56
2022-12-11T12:20:09.658Z,18.52
2022-12-11T12:25:20.212Z,18.50
2022-12-11T12:30:24.290Z,18.44
2022-12-11T12:35:37.670Z,18.20
2022-12-11T12:40:55.769Z,18.22
2022-12-11T12:46:08.549Z,18.12
2022-12-11T12:51:15.935Z,18.18
2022-12-11T12:56:20.539Z,17.98
2022-12-11T13:01:27.400Z,18.03
2022-12-11T13:06:36.126Z,18.04
2022-12-11T13:11:42.130Z,18.07
2022-12-11T13:16:46.812Z,18.11
2022-12-11T13:22:00.509Z,18.04
2022-12-11T13:27:23.598Z,18.11
2022-12-11T13:32:32.046Z,17.96
2022-12-11T13:37:41.334Z,18.10
2022-12-11T13:42:50.621Z,18.08
2022-12-11T13:47:54.176Z,17.97
2022-12-11T13:53:00.993Z,17.82
2022-12-11T13:58:04.647Z,17.80
2022-12-11T14:03:08.478Z,17.51
2022-12-11T14:08:13.990Z,17.19
2022-12-11T14:13:23.328Z,16.94
2022-12-11T14:18:30.998Z,16.62
2022-12-11T14:23:37.455Z,16.74
2022-12-11T14:28:44.083Z,16.72
2022-12-11T14:33:51.520Z,16.74
2022-12-11T14:39:01.149Z,16.73
2022-12-11T14:44:07.877Z,16.48
2022-12-11T14:49:21.706Z,16.12
2022-12-11T14:54:31.203Z,16.00
2022-12-11T14:59:45.207Z,15.99
2022-12-11T15:05:02.771Z,15.86
2022-12-11T15:10:09.355Z,15.70
2022-12-11T15:15:17.169Z,15.55
2022-12-11T15:20:27.025Z,15.54
2022-12-11T15:25:33.024Z,15.54
2022-12-11T15:30:36.784Z,15.46
2022-12-11T15:35:41.891Z,15.27
2022-12-11T15:40:46.871Z,15.18
2022-12-11T15:45:51.785Z,15.12
2022-12-11T15:50:55.248Z,15.17
2022-12-11T15:56:00.703Z,15.13
2022-12-11T16:01:04.351Z,15.15
2022-12-11T16:06:13.833Z,15.39
2022-12-11T16:11:18.825Z,15.51
2022-12-11T16:16:22.403Z,15.50
2022-12-11T16:21:27.073Z,15.60
2022-12-11T16:26:32.262Z,15.51
2022-12-11T16:31:35.909Z,15.42
2022-12-11T16:36:39.401Z,15.30
2022-12-11T16:41:44.342Z,15.27
2022-12-11T16:46:48.180Z,15.21
2022-12-11T16:51:51.673Z,15.16
2022-12-11T16:56:56.647Z,15.14
2022-12-11T17:02:00.167Z,15.06
2022-12-11T17:07:04.879Z,15.07
2022-12-11T17:12:10.390Z,15.03
2022-12-11T17:17:14.002Z,15.07
2022-12-11T17:22:17.513Z,15.16
2022-12-11T17:27:24.192Z,15.09
2022-12-11T17:32:29.234Z,15.18
2022-12-11T17:37:32.785Z,15.06
2022-12-11T17:42:38.083Z,14.93
2022-12-11T17:47:42.375Z,14.92
2022-12-11T17:52:46.006Z,14.83
2022-12-11T17:57:52.029Z,14.84
2022-12-11T18:02:55.596Z,14.75
2022-12-11T18:07:59.076Z,14.49
2022-12-11T18:13:04.109Z,14.29
2022-12-11T18:18:08.850Z,14.17
2022-12-11T18:23:12.600Z,14.08
2022-12-11T18:28:17.677Z,13.85
2022-12-11T18:33:21.273Z,13.83
2022-12-11T18:38:25.333Z,13.64
2022-12-11T18:43:30.295Z,13.57
2022-12-11T18:48:35.808Z,13.53
2022-12-11T18:53:40.494Z,12.85
2022-12-11T18:58:46.372Z,12.73
2022-12-11T19:03:51.491Z,12.57
2022-12-11T19:08:55.201Z,12.50
2022-12-11T19:14:00.543Z,12.49
2022-12-11T19:19:06.408Z,12.23
2022-12-11T19:24:15.079Z,12.21
2022-12-11T19:29:23.658Z,11.94
2022-12-11T19:34:27.541Z,11.69
2022-12-11T19:39:32.092Z,11.42
2022-12-11T19:44:37.115Z,11.22
2022-12-11T19:49:40.564Z,10.85
2022-12-11T19:54:44.104Z,10.42
2022-12-11T19:59:53.880Z,10.10
2022-12-11T20:05:00.319Z,9.87
2022-12-11T20:10:04.063Z,9.45
2022-12-11T20:15:10.442Z,9.08
2022-12-11T20:20:16.516Z,8.83
2022-12-11T20:25:21.709Z,8.70
2022-12-11T20:30:26.981Z,8.43
2022-12-11T20:35:30.602Z,8.38
2022-12-11T20:40:34.850Z,8.43
2022-12-11T20:45:39.676Z,8.31
2022-12-11T20:50:43.243Z,8.15
2022-12-11T20:55:46.729Z,8.03
2022-12-11T21:00:51.881Z,8.22
2022-12-11T21:05:56.075Z,8.06
2022-12-11T21:10:59.561Z,8.12
2022-12-11T21:16:07.996Z,8.08
2022-12-11T21:21:11.772Z,8.02
2022-12-11T21:26:15.895Z,8.03
2022-12-11T21:31:21.616Z,8.00
2022-12-11T21:36:25.855Z,7.86
2022-12-11T21:41:29.717Z,7.88
2022-12-11T21:46:35.040Z,7.82
2022-12-11T21:51:46.864Z,7.85
2022-12-11T21:56:51.177Z,7.83
2022-12-11T22:01:56.478Z,7.83
2022-12-11T22:06:59.968Z,7.81
2022-12-11T22:12:03.562Z,7.71
2022-12-11T22:17:08.526Z,7.73
2022-12-11T22:22:12.229Z,7.55
2022-12-11T22:27:20.419Z,7.54
2022-12-11T22:32:28.560Z,7.52
2022-12-11T22:37:32.270Z,7.44
2022-12-11T22:42:36.030Z,7.50
2022-12-11T22:47:41.008Z,7.55
2022-12-11T22:52:45.464Z,7.32
2022-12-11T22:57:48.998Z,7.31
2022-12-11T23:02:53.950Z,7.17
2022-12-11T23:07:57.677Z,6.98
2022-12-11T23:13:01.637Z,6.89
2022-12-11T23:18:06.707Z,6.83
2022-12-11T23:23:10.173Z,6.69
2022-12-11T23:28:14.168Z,6.69
2022-12-11T23:33:19.143Z,6.79
2022-12-11T23:38:22.785Z,6.59
2022-12-11T23:43:26.427Z,6.70
2022-12-11T23:48:31.379Z,6.70
2022-12-11T23:53:34.886Z,6.63
2022-12-11T23:58:39.260Z,6.68
